createdAt,value
2022-10-20T00:01:28.963Z,1.45
2022-10-20T00:03:57.508Z,1.33
2022-10-20T00:06:30.976Z,2.05
2022-10-20T00:09:01.425Z,1.95
2022-10-20T00:11:30.238Z,1.40
2022-10-20T00:13:59.076Z,1.60
2022-10-20T00:16:28.070Z,1.50
2022-10-20T00:18:56.785Z,2.65
2022-10-20T00:21:26.338Z,1.55
2022-10-20T00:23:54.302Z,1.92
2022-10-20T00:26:24.774Z,1.80
2022-10-20T00:28:52.972Z,2.00
2022-10-20T00:31:22.231Z,1.83
2022-10-20T00:33:49.941Z,2.15
2022-10-20T00:36:19.462Z,1.70
2022-10-20T00:38:48.148Z,1.67
2022-10-20T00:41:21.045Z,1.80
2022-10-20T00:43:55.245Z,1.75
2022-10-20T00:46:41.555Z,1.67
2022-10-20T00:51:51.421Z,1.73
2022-10-20T00:54:23.786Z,1.60
2022-10-20T00:56:51.857Z,2.20
2022-10-20T00:59:26.249Z,1.60
2022-10-20T01:01:55.253Z,1.52
2022-10-20T01:04:23.610Z,1.40
2022-10-20T01:06:51.351Z,1.65
2022-10-20T01:09:19.463Z,1.30
2022-10-20T01:12:14.304Z,1.20
2022-10-20T01:15:03.943Z,1.50
2022-10-20T01:17:56.208Z,1.77
2022-10-20T01:20:50.396Z,1.27
2022-10-20T01:23:25.752Z,1.70
2022-10-20T01:26:27.697Z,1.40
2022-10-20T01:29:00.604Z,1.38
2022-10-20T01:32:09.457Z,1.55
2022-10-20T01:34:55.739Z,2.10
2022-10-20T01:37:48.607Z,1.58
2022-10-20T01:40:43.091Z,2.20
2022-10-20T01:43:14.080Z,1.48
2022-10-20T01:45:46.011Z,1.70
2022-10-20T01:48:15.648Z,1.80
2022-10-20T01:50:43.997Z,1.65
2022-10-20T01:53:11.610Z,1.40
2022-10-20T01:55:40.487Z,1.80
2022-10-20T01:58:20.912Z,1.85
2022-10-20T02:00:51.390Z,1.92
2022-10-20T02:03:54.911Z,2.40
2022-10-20T02:06:37.673Z,1.77
2022-10-20T02:09:10.153Z,1.73
2022-10-20T02:11:50.500Z,1.88
2022-10-20T02:14:20.340Z,1.42
2022-10-20T02:16:52.267Z,2.00
2022-10-20T02:19:23.243Z,1.77
2022-10-20T02:21:52.969Z,2.15
2022-10-20T02:24:25.110Z,1.63
2022-10-20T02:26:56.050Z,1.60
2022-10-20T02:29:29.353Z,1.73
2022-10-20T02:31:57.597Z,2.08
2022-10-20T02:34:28.481Z,1.67
2022-10-20T02:36:58.814Z,1.60
2022-10-20T02:39:27.197Z,1.98
2022-10-20T02:41:55.150Z,1.70
2022-10-20T02:44:23.976Z,1.98
2022-10-20T02:46:51.762Z,1.30
2022-10-20T02:49:21.459Z,1.50
2022-10-20T02:51:49.058Z,1.67
2022-10-20T02:54:16.835Z,2.03
2022-10-20T02:56:44.419Z,1.50
2022-10-20T02:59:16.943Z,1.55
2022-10-20T03:01:45.215Z,1.92
2022-10-20T03:04:13.291Z,1.65
2022-10-20T03:06:41.881Z,2.17
2022-10-20T03:09:09.581Z,2.15
2022-10-20T03:11:37.277Z,1.52
2022-10-20T03:14:04.862Z,1.45
2022-10-20T03:16:32.451Z,2.10
2022-10-20T03:19:03.915Z,1.90
2022-10-20T03:21:34.872Z,2.05
2022-10-20T03:24:02.606Z,2.05
2022-10-20T03:26:30.216Z,2.05
2022-10-20T03:28:57.754Z,1.52
2022-10-20T03:31:25.437Z,2.20
2022-10-20T03:33:53.051Z,2.00
2022-10-20T03:36:20.645Z,1.80
2022-10-20T03:38:48.239Z,2.03
2022-10-20T03:41:15.799Z,2.25
2022-10-20T03:43:43.401Z,2.97
2022-10-20T03:46:12.057Z,2.30
2022-10-20T03:48:40.309Z,2.30
2022-10-20T03:51:09.563Z,2.08
2022-10-20T03:53:37.169Z,2.30
2022-10-20T03:56:09.974Z,2.08
2022-10-20T03:58:37.623Z,2.55
2022-10-20T04:01:06.858Z,2.08
2022-10-20T04:03:34.454Z,1.70
2022-10-20T04:06:02.030Z,3.45
2022-10-20T04:08:29.764Z,1.63
2022-10-20T04:10:58.209Z,1.80
2022-10-20T04:13:25.831Z,2.17
2022-10-20T04:15:53.471Z,1.92
2022-10-20T04:18:21.225Z,1.88
2022-10-20T04:20:49.168Z,1.60
2022-10-20T04:23:16.994Z,1.75
2022-10-20T04:25:48.810Z,1.95
2022-10-20T04:28:18.581Z,2.33
2022-10-20T04:30:47.040Z,2.22
2022-10-20T04:33:15.266Z,2.60
2022-10-20T04:35:43.388Z,3.10
2022-10-20T04:38:10.986Z,2.47
2022-10-20T04:40:38.616Z,2.38
2022-10-20T04:43:06.350Z,2.50
2022-10-20T04:45:37.055Z,2.20
2022-10-20T04:48:05.697Z,2.40
2022-10-20T04:50:33.238Z,2.08
2022-10-20T04:53:08.255Z,2.80
2022-10-20T04:55:36.423Z,2.80
2022-10-20T04:58:04.110Z,2.28
2022-10-20T05:00:31.763Z,2.60
2022-10-20T05:02:59.472Z,2.95
2022-10-20T05:05:27.094Z,2.97
2022-10-20T05:07:54.713Z,4.07
2022-10-20T05:10:22.358Z,2.15
2022-10-20T05:12:50.001Z,1.77
2022-10-20T05:15:19.630Z,2.20
2022-10-20T05:17:47.205Z,2.65
2022-10-20T05:20:14.852Z,2.30
2022-10-20T05:22:42.442Z,2.60
2022-10-20T05:25:35.084Z,2.88
2022-10-20T05:27:58.304Z,2.55
2022-10-20T05:30:25.908Z,2.40
2022-10-20T05:32:53.463Z,3.33
2022-10-20T05:35:21.132Z,1.85
2022-10-20T05:37:48.696Z,2.08
2022-10-20T05:40:16.344Z,3.05
2022-10-20T05:42:43.902Z,3.05
2022-10-20T05:45:11.640Z,7.25
2022-10-20T05:47:39.291Z,4.00
2022-10-20T05:50:09.298Z,2.53
2022-10-20T05:52:37.509Z,2.60
2022-10-20T05:55:05.846Z,2.70
2022-10-20T05:57:33.412Z,2.67
2022-10-20T06:00:01.042Z,2.58
2022-10-20T06:02:28.673Z,2.63
2022-10-20T06:04:56.295Z,2.13
2022-10-20T06:07:23.923Z,2.85
2022-10-20T06:09:51.655Z,2.70
2022-10-20T06:12:54.089Z,2.55
2022-10-20T06:15:50.089Z,2.90
2022-10-20T06:21:21.377Z,2.75
2022-10-20T06:24:13.058Z,3.00
2022-10-20T06:26:51.158Z,3.28
2022-10-20T06:29:52.652Z,3.10
2022-10-20T06:32:34.870Z,2.65
2022-10-20T06:35:13.294Z,3.20
2022-10-20T06:37:55.217Z,3.22
2022-10-20T06:40:31.823Z,2.72
2022-10-20T06:43:15.664Z,2.88
2022-10-20T06:45:51.786Z,3.70
2022-10-20T06:48:24.059Z,3.08
2022-10-20T06:51:14.123Z,3.05
2022-10-20T06:53:49.969Z,2.38
2022-10-20T06:56:30.129Z,3.05
2022-10-20T07:02:09.266Z,2.85
2022-10-20T07:05:14.607Z,2.13
2022-10-20T07:08:04.763Z,2.95
2022-10-20T07:10:45.908Z,2.80
2022-10-20T07:13:19.189Z,1.98
2022-10-20T07:16:13.357Z,2.88
2022-10-20T07:18:59.964Z,2.63
2022-10-20T07:21:36.603Z,5.18
2022-10-20T07:24:11.719Z,2.85
2022-10-20T07:27:07.014Z,2.83
2022-10-20T07:29:46.381Z,2.30
2022-10-20T07:32:31.535Z,2.30
2022-10-20T07:35:13.413Z,2.53
2022-10-20T07:37:52.398Z,2.35
2022-10-20T07:40:35.062Z,1.92
2022-10-20T07:43:17.436Z,2.50
2022-10-20T07:45:47.201Z,3.05
2022-10-20T07:48:18.123Z,3.20
2022-10-20T07:50:52.000Z,3.30
2022-10-20T07:53:45.526Z,2.60
2022-10-20T07:56:21.636Z,2.72
2022-10-20T07:59:11.555Z,2.03
2022-10-20T08:02:01.356Z,1.73
2022-10-20T08:04:42.383Z,1.70
2022-10-20T08:07:16.307Z,2.20
2022-10-20T08:09:59.567Z,2.22
2022-10-20T08:15:15.554Z,2.20
2022-10-20T08:18:04.450Z,2.28
2022-10-20T08:20:52.724Z,1.58
2022-10-20T08:24:04.649Z,1.50
2022-10-20T08:26:41.379Z,1.20
2022-10-20T08:29:33.885Z,1.92
2022-10-20T08:32:28.372Z,1.23
2022-10-20T08:35:04.848Z,1.50
2022-10-20T08:37:41.971Z,1.50
2022-10-20T08:40:31.185Z,1.63
2022-10-20T08:43:40.109Z,1.50
2022-10-20T08:46:25.197Z,1.55
2022-10-20T08:49:22.119Z,1.55
2022-10-20T08:52:03.794Z,1.70
2022-10-20T08:54:44.638Z,1.45
2022-10-20T08:57:35.956Z,0.98
2022-10-20T09:00:44.241Z,1.70
2022-10-20T09:03:35.755Z,1.10
2022-10-20T09:06:18.227Z,1.13
2022-10-20T09:08:59.561Z,2.00
2022-10-20T09:11:40.412Z,1.80
2022-10-20T09:14:10.899Z,1.42
2022-10-20T09:16:58.751Z,1.50
2022-10-20T09:19:27.845Z,1.77
2022-10-20T09:21:58.060Z,1.50
2022-10-20T09:24:30.201Z,1.92
2022-10-20T09:27:40.002Z,2.17
2022-10-20T09:30:33.962Z,1.42
2022-10-20T09:33:30.819Z,1.73
2022-10-20T09:36:06.035Z,1.50
2022-10-20T09:38:35.329Z,1.33
2022-10-20T09:41:24.613Z,1.33
2022-10-20T09:43:58.344Z,1.42
2022-10-20T09:46:34.702Z,1.60
2022-10-20T09:49:02.475Z,1.58
2022-10-20T09:51:31.105Z,1.70
2022-10-20T09:54:15.959Z,1.52
2022-10-20T09:56:46.766Z,1.95
2022-10-20T09:59:28.949Z,1.90
2022-10-20T10:02:20.932Z,1.45
2022-10-20T10:04:51.258Z,2.22
2022-10-20T10:07:39.078Z,1.67
2022-10-20T10:10:23.836Z,2.22
2022-10-20T10:12:56.970Z,1.80
2022-10-20T10:15:27.773Z,2.17
2022-10-20T10:17:56.103Z,2.00
2022-10-20T10:20:36.875Z,2.03
2022-10-20T10:23:23.480Z,1.50
2022-10-20T10:25:52.405Z,1.75
2022-10-20T10:28:36.793Z,2.58
2022-10-20T10:31:09.198Z,2.03
2022-10-20T10:33:39.837Z,1.70
2022-10-20T10:36:15.300Z,1.85
2022-10-20T10:38:42.942Z,2.00
2022-10-20T10:41:25.506Z,2.20
2022-10-20T10:44:18.055Z,1.50
2022-10-20T10:47:06.520Z,1.90
2022-10-20T10:50:02.484Z,1.95
2022-10-20T10:52:49.022Z,1.73
2022-10-20T10:55:49.696Z,1.77
2022-10-20T10:58:18.344Z,1.58
2022-10-20T11:00:59.229Z,1.95
2022-10-20T11:03:53.278Z,1.63
2022-10-20T11:06:42.655Z,1.50
2022-10-20T11:09:37.577Z,1.50
2022-10-20T11:12:14.318Z,2.10
2022-10-20T11:14:57.788Z,1.75
2022-10-20T11:17:40.684Z,1.80
2022-10-20T11:20:33.530Z,2.03
2022-10-20T11:23:19.869Z,2.28
2022-10-20T11:26:03.374Z,2.10
2022-10-20T11:28:50.093Z,1.83
2022-10-20T11:31:26.955Z,1.70
2022-10-20T11:34:19.443Z,1.98
2022-10-20T11:37:11.090Z,1.75
2022-10-20T11:39:46.264Z,1.73
2022-10-20T11:42:36.949Z,1.70
2022-10-20T11:45:29.934Z,1.55
2022-10-20T11:48:17.851Z,1.63
2022-10-20T11:51:01.358Z,1.63
2022-10-20T11:53:40.960Z,1.77
2022-10-20T11:56:19.388Z,1.63
2022-10-20T11:59:05.282Z,1.67
2022-10-20T12:01:56.471Z,2.08
2022-10-20T12:04:42.193Z,1.70
2022-10-20T12:07:54.118Z,1.38
2022-10-20T12:10:49.793Z,1.70
2022-10-20T12:13:28.702Z,2.08
2022-10-20T12:15:56.522Z,1.70
2022-10-20T12:18:32.702Z,1.75
2022-10-20T12:21:03.026Z,1.88
2022-10-20T12:23:46.139Z,1.90
2022-10-20T12:26:35.659Z,1.83
2022-10-20T12:29:32.381Z,2.17
2022-10-20T12:32:21.925Z,1.80
2022-10-20T12:34:55.356Z,1.70
2022-10-20T12:37:26.041Z,2.17
2022-10-20T12:39:56.183Z,1.55
2022-10-20T12:42:26.835Z,2.08
2022-10-20T12:44:55.563Z,1.55
2022-10-20T12:47:29.227Z,1.77
2022-10-20T12:50:00.146Z,2.50
2022-10-20T12:52:33.777Z,1.92
2022-10-20T12:55:19.887Z,2.38
2022-10-20T12:57:47.809Z,2.03
2022-10-20T13:00:24.132Z,2.08
2022-10-20T13:02:59.318Z,2.22
2022-10-20T13:05:29.664Z,2.40
2022-10-20T13:08:04.632Z,2.08
2022-10-20T13:10:37.726Z,2.17
2022-10-20T13:13:05.310Z,1.90
2022-10-20T13:15:36.326Z,2.45
2022-10-20T13:18:12.992Z,1.85
2022-10-20T13:20:40.608Z,2.25
2022-10-20T13:23:23.167Z,1.92
2022-10-20T13:25:53.377Z,2.17
2022-10-20T13:28:28.815Z,2.30
2022-10-20T13:31:02.088Z,2.42
2022-10-20T13:33:44.853Z,1.98
2022-10-20T13:36:48.862Z,1.88
2022-10-20T13:39:31.756Z,2.25
2022-10-20T13:42:31.329Z,2.95
2022-10-20T13:45:08.230Z,2.70
2022-10-20T13:47:51.499Z,2.30
2022-10-20T13:50:28.012Z,2.60
2022-10-20T13:53:01.482Z,2.58
2022-10-20T13:55:31.689Z,2.35
2022-10-20T13:58:17.328Z,2.38
2022-10-20T14:00:58.185Z,2.38
2022-10-20T14:03:26.010Z,2.20
2022-10-20T14:05:54.942Z,2.42
2022-10-20T14:08:23.521Z,2.42
2022-10-20T14:10:54.143Z,2.60
2022-10-20T14:13:25.761Z,2.70
2022-10-20T14:16:01.991Z,3.10
2022-10-20T14:18:36.211Z,2.67
2022-10-20T14:21:15.835Z,2.08
2022-10-20T14:23:45.771Z,2.63
2022-10-20T14:26:18.191Z,2.80
2022-10-20T14:28:47.261Z,2.30
2022-10-20T14:31:15.340Z,2.58
2022-10-20T14:33:45.770Z,2.78
2022-10-20T14:36:23.644Z,2.67
2022-10-20T14:38:57.545Z,3.10
2022-10-20T14:41:28.028Z,3.22
2022-10-20T14:44:09.306Z,2.85
2022-10-20T14:46:46.885Z,3.03
2022-10-20T14:49:38.292Z,2.72
2022-10-20T14:52:21.276Z,2.88
2022-10-20T14:54:51.605Z,3.10
2022-10-20T14:57:24.636Z,2.90
2022-10-20T14:59:56.315Z,3.00
2022-10-20T15:02:45.802Z,2.55
2022-10-20T15:05:37.800Z,3.10
2022-10-20T15:08:17.555Z,3.88
2022-10-20T15:10:45.688Z,2.95
2022-10-20T15:13:31.435Z,2.85
2022-10-20T15:16:01.406Z,2.92
2022-10-20T15:18:30.204Z,3.17
2022-10-20T15:20:57.998Z,3.00
2022-10-20T15:23:29.846Z,3.13
2022-10-20T15:26:05.566Z,2.92
2022-10-20T15:28:43.353Z,2.92
2022-10-20T15:31:14.075Z,3.45
2022-10-20T15:33:42.386Z,3.38
2022-10-20T15:36:20.766Z,3.22
2022-10-20T15:38:49.748Z,3.67
2022-10-20T15:41:32.198Z,3.60
2022-10-20T15:44:15.354Z,3.38
2022-10-20T15:46:47.459Z,3.13
2022-10-20T15:49:15.478Z,3.33
2022-10-20T15:51:45.559Z,3.30
2022-10-20T15:54:19.369Z,3.42
2022-10-20T15:56:49.736Z,3.10
2022-10-20T15:59:17.299Z,2.70
2022-10-20T16:01:45.023Z,3.25
2022-10-20T16:04:17.058Z,3.28
2022-10-20T16:06:45.038Z,3.10
2022-10-20T16:09:15.776Z,3.53
2022-10-20T16:11:44.841Z,3.67
2022-10-20T16:14:12.999Z,3.78
2022-10-20T16:16:40.650Z,3.10
2022-10-20T16:19:08.444Z,3.17
2022-10-20T16:21:36.344Z,3.47
2022-10-20T16:24:05.113Z,3.67
2022-10-20T16:26:32.657Z,3.50
2022-10-20T16:29:00.403Z,4.32
2022-10-20T16:31:29.685Z,4.50
2022-10-20T16:34:00.274Z,5.63
2022-10-20T16:36:28.135Z,20.25
2022-10-20T16:38:57.524Z,16.45
2022-10-20T16:41:25.310Z,6.55
2022-10-20T16:43:55.376Z,5.70
2022-10-20T16:46:25.238Z,8.07
2022-10-20T16:48:52.989Z,3.88
2022-10-20T16:51:20.666Z,11.93
2022-10-20T16:53:49.903Z,5.63
2022-10-20T16:56:20.077Z,8.02
2022-10-20T16:58:49.297Z,8.80
2022-10-20T17:01:19.450Z,7.53
2022-10-20T17:03:49.370Z,6.30
2022-10-20T17:06:21.577Z,4.78
2022-10-20T17:09:01.013Z,4.57
2022-10-20T17:11:35.276Z,4.80
2022-10-20T17:14:03.602Z,5.32
2022-10-20T17:16:33.298Z,5.78
2022-10-20T17:19:04.723Z,5.43
2022-10-20T17:21:33.140Z,4.03
2022-10-20T17:24:01.303Z,3.92
2022-10-20T17:26:32.050Z,4.15
2022-10-20T17:29:03.030Z,4.25
2022-10-20T17:31:30.914Z,4.68
2022-10-20T17:33:59.464Z,3.88
2022-10-20T17:36:28.954Z,4.90
2022-10-20T17:38:59.451Z,4.50
2022-10-20T17:41:27.236Z,5.57
2022-10-20T17:43:55.492Z,4.43
2022-10-20T17:46:23.551Z,5.28
2022-10-20T17:48:51.147Z,4.97
2022-10-20T17:51:21.773Z,9.15
2022-10-20T17:53:51.520Z,16.98
2022-10-20T17:56:29.935Z,8.90
2022-10-20T17:59:03.215Z,8.15
2022-10-20T18:01:35.204Z,9.63
2022-10-20T18:04:07.292Z,10.68
2022-10-20T18:06:36.371Z,9.68
2022-10-20T18:09:13.507Z,6.95
2022-10-20T18:11:52.140Z,7.10
2022-10-20T18:14:27.239Z,9.45
2022-10-20T18:17:00.138Z,7.38
2022-10-20T18:19:28.378Z,5.57
2022-10-20T18:21:57.315Z,4.68
2022-10-20T18:24:27.450Z,6.90
2022-10-20T18:26:55.860Z,6.85
2022-10-20T18:29:26.826Z,4.78
2022-10-20T18:31:56.534Z,10.65
2022-10-20T18:34:27.146Z,5.60
2022-10-20T18:36:56.333Z,5.30
2022-10-20T18:39:24.123Z,6.00
2022-10-20T18:41:52.689Z,7.40
2022-10-20T18:44:20.696Z,5.47
2022-10-20T18:46:48.433Z,5.70
2022-10-20T18:49:20.844Z,6.88
2022-10-20T18:51:50.823Z,13.85
2022-10-20T18:54:19.736Z,8.55
2022-10-20T18:56:47.443Z,8.10
2022-10-20T18:59:17.313Z,8.50
2022-10-20T19:01:45.731Z,9.15
2022-10-20T19:04:13.499Z,6.00
2022-10-20T19:06:44.266Z,7.53
2022-10-20T19:09:21.059Z,8.35
2022-10-20T19:14:18.199Z,6.07
2022-10-20T19:16:47.744Z,4.35
2022-10-20T19:19:16.126Z,4.47
2022-10-20T19:21:44.181Z,4.60
2022-10-20T19:24:19.143Z,4.95
2022-10-20T19:26:57.078Z,5.18
2022-10-20T19:29:30.372Z,4.93
2022-10-20T19:32:00.571Z,4.80
2022-10-20T19:34:34.942Z,5.03
2022-10-20T19:37:03.525Z,4.85
2022-10-20T19:39:34.977Z,5.18
2022-10-20T19:42:05.067Z,4.65
2022-10-20T19:44:33.460Z,4.10
2022-10-20T19:47:01.884Z,4.68
2022-10-20T19:49:29.655Z,4.68
2022-10-20T19:51:57.344Z,4.15
2022-10-20T19:54:25.170Z,4.32
2022-10-20T19:56:52.899Z,4.45
2022-10-20T19:59:20.580Z,4.25
2022-10-20T20:01:52.661Z,5.07
2022-10-20T20:04:20.486Z,4.47
2022-10-20T20:06:48.251Z,4.90
2022-10-20T20:09:16.085Z,4.60
2022-10-20T20:11:44.409Z,5.35
2022-10-20T20:14:17.921Z,4.70
2022-10-20T20:16:46.778Z,4.70
2022-10-20T20:19:17.770Z,4.60
2022-10-20T20:21:46.246Z,4.05
2022-10-20T20:24:14.769Z,4.57
2022-10-20T20:26:44.538Z,4.70
2022-10-20T20:29:12.960Z,5.05
2022-10-20T20:31:40.646Z,4.70
2022-10-20T20:34:08.661Z,3.42
2022-10-20T20:36:36.525Z,4.97
2022-10-20T20:39:04.157Z,5.03
2022-10-20T20:41:34.472Z,4.35
2022-10-20T20:44:07.749Z,3.72
2022-10-20T20:46:36.971Z,3.83
2022-10-20T20:49:05.125Z,3.45
2022-10-20T20:51:34.013Z,3.30
2022-10-20T20:54:03.055Z,3.78
2022-10-20T20:56:31.035Z,3.28
2022-10-20T20:58:58.855Z,3.67
2022-10-20T21:01:29.057Z,3.70
2022-10-20T21:04:01.326Z,4.32
2022-10-20T21:06:34.048Z,4.00
2022-10-20T21:09:11.906Z,3.58
2022-10-20T21:11:39.631Z,3.55
2022-10-20T21:14:07.267Z,3.67
2022-10-20T21:16:37.008Z,3.25
2022-10-20T21:19:08.678Z,3.58
2022-10-20T21:21:47.244Z,4.15
2022-10-20T21:24:15.021Z,3.75
2022-10-20T21:26:43.834Z,3.38
2022-10-20T21:29:11.625Z,4.03
2022-10-20T21:31:40.840Z,4.55
2022-10-20T21:34:10.076Z,3.53
2022-10-20T21:36:40.068Z,3.70
2022-10-20T21:39:11.617Z,4.07
2022-10-20T21:41:39.307Z,4.18
2022-10-20T21:44:07.930Z,3.38
2022-10-20T21:46:47.147Z,3.80
2022-10-20T21:49:17.728Z,3.63
2022-10-20T21:51:50.783Z,3.33
2022-10-20T21:56:49.947Z,3.90
2022-10-20T21:59:29.298Z,3.60
2022-10-20T22:01:59.694Z,3.85
2022-10-20T22:04:29.177Z,3.97
2022-10-20T22:06:57.256Z,3.83
2022-10-20T22:09:25.043Z,4.15
2022-10-20T22:11:55.448Z,3.40
2022-10-20T22:14:23.714Z,3.53
2022-10-20T22:16:51.683Z,4.38
2022-10-20T22:19:21.410Z,4.35
2022-10-20T22:21:51.137Z,3.83
2022-10-20T22:24:20.071Z,3.78
2022-10-20T22:26:48.822Z,3.97
2022-10-20T22:29:17.281Z,4.45
2022-10-20T22:31:44.939Z,3.92
2022-10-20T22:34:13.068Z,3.88
2022-10-20T22:36:40.881Z,4.05
2022-10-20T22:39:09.105Z,3.45
2022-10-20T22:41:37.182Z,3.55
2022-10-20T22:44:05.767Z,3.58
2022-10-20T22:46:33.743Z,4.20
2022-10-20T22:49:01.794Z,3.58
2022-10-20T22:51:29.400Z,3.85
2022-10-20T22:53:57.446Z,4.00
2022-10-20T22:56:25.481Z,3.90
2022-10-20T22:58:54.343Z,4.05
2022-10-20T23:01:23.743Z,3.80
2022-10-20T23:03:51.748Z,3.92
2022-10-20T23:06:22.871Z,3.90
2022-10-20T23:08:55.833Z,3.88
2022-10-20T23:11:24.357Z,3.92
2022-10-20T23:13:52.102Z,3.83
2022-10-20T23:16:20.203Z,4.32
2022-10-20T23:18:48.243Z,3.75
2022-10-20T23:21:15.872Z,3.60
2022-10-20T23:23:46.454Z,3.70
2022-10-20T23:26:14.408Z,4.32
2022-10-20T23:28:42.086Z,3.53
2022-10-20T23:31:11.546Z,4.00
2022-10-20T23:33:39.951Z,3.80
2022-10-20T23:36:08.491Z,3.72
2022-10-20T23:38:36.134Z,4.00
2022-10-20T23:41:04.505Z,4.05
2022-10-20T23:43:33.073Z,3.65
2022-10-20T23:46:00.926Z,3.67
2022-10-20T23:48:29.844Z,3.97
2022-10-20T23:50:57.691Z,3.88
2022-10-20T23:53:25.480Z,3.58
2022-10-20T23:55:53.131Z,3.63
2022-10-20T23:58:22.534Z,3.38
